sensor_id;sensor_type;location;lat;lon;timestamp;pressure;altitude;pressure_sealevel;temperature;humidity
22930;BME280;11630;42.660;23.292;2022-10-18T00:01:26;68360.99;;;7.46;100.00
22930;BME280;11630;42.660;23.292;2022-10-18T00:03:56;68381.06;;;7.62;100.00
22930;BME280;11630;42.660;23.292;2022-10-18T00:06:27;68387.84;;;7.71;100.00
22930;BME280;11630;42.660;23.292;2022-10-18T00:08:58;68393.81;;;7.74;100.00
22930;BME280;11630;42.660;23.292;2022-10-18T00:11:31;68385.41;;;7.70;100.00
22930;BME280;11630;42.660;23.292;2022-10-18T00:14:03;68385.41;;;7.70;100.00
22930;BME280;11630;42.660;23.292;2022-10-18T00:16:34;68368.06;;;7.55;100.00
22930;BME280;11630;42.660;23.292;2022-10-18T00:19:04;68354.50;;;7.42;100.00
22930;BME280;11630;42.660;23.292;2022-10-18T00:21:35;68343.11;;;7.32;100.00
22930;BME280;11630;42.660;23.292;2022-10-18T00:24:05;68359.64;;;7.46;100.00
22930;BME280;11630;42.660;23.292;2022-10-18T00:26:36;68365.07;;;7.53;100.00
22930;BME280;11630;42.660;23.292;2022-10-18T00:29:10;68364.80;;;7.49;100.00
22930;BME280;11630;42.660;23.292;2022-10-18T00:31:38;68362.35;;;7.48;100.00
22930;BME280;11630;42.660;23.292;2022-10-18T00:34:15;68358.56;;;7.45;100.00
22930;BME280;11630;42.660;23.292;2022-10-18T00:36:45;68370.77;;;7.55;100.00
22930;BME280;11630;42.660;23.292;2022-10-18T00:39:17;68351.22;;;7.34;100.00
22930;BME280;11630;42.660;23.292;2022-10-18T00:41:51;68332.26;;;7.22;100.00
22930;BME280;11630;42.660;23.292;2022-10-18T00:47:01;68360.73;;;7.47;100.00
22930;BME280;11630;42.660;23.292;2022-10-18T00:49:36;68343.91;;;7.31;100.00
22930;BME280;11630;42.660;23.292;2022-10-18T00:52:21;68348.27;;;7.38;100.00
22930;BME280;11630;42.660;23.292;2022-10-18T00:54:48;68359.64;;;7.46;100.00
22930;BME280;11630;42.660;23.292;2022-10-18T00:57:22;68358.82;;;7.44;100.00
22930;BME280;11630;42.660;23.292;2022-10-18T00:59:53;68340.92;;;7.27;100.00
22930;BME280;11630;42.660;23.292;2022-10-18T01:02:25;68343.38;;;7.31;100.00
22930;BME280;11630;42.660;23.292;2022-10-18T01:04:54;68326.84;;;7.17;100.00
22930;BME280;11630;42.660;23.292;2022-10-18T01:07:33;68337.95;;;7.26;100.00
22930;BME280;11630;42.660;23.292;2022-10-18T01:10:09;68346.35;;;7.35;100.00
22930;BME280;11630;42.660;23.292;2022-10-18T01:12:59;68336.61;;;7.26;100.00
22930;BME280;11630;42.660;23.292;2022-10-18T01:15:37;68336.61;;;7.26;100.00
22930;BME280;11630;42.660;23.292;2022-10-18T01:24:13;68335.52;;;7.25;100.00
22930;BME280;11630;42.660;23.292;2022-10-18T01:26:23;68349.34;;;7.36;100.00
22930;BME280;11630;42.660;23.292;2022-10-18T01:31:41;68337.14;;;7.26;100.00
22930;BME280;11630;42.660;23.292;2022-10-18T01:34:13;68329.28;;;7.18;100.00
22930;BME280;11630;42.660;23.292;2022-10-18T01:36:48;68314.63;;;7.02;100.00
22930;BME280;11630;42.660;23.292;2022-10-18T01:39:22;68314.91;;;7.08;100.00
22930;BME280;11630;42.660;23.292;2022-10-18T01:41:53;68306.77;;;6.96;100.00
22930;BME280;11630;42.660;23.292;2022-10-18T01:44:28;68314.63;;;7.04;100.00
22930;BME280;11630;42.660;23.292;2022-10-18T01:46:59;68314.09;;;7.04;100.00
22930;BME280;11630;42.660;23.292;2022-10-18T01:49:30;68328.19;;;7.17;100.00
22930;BME280;11630;42.660;23.292;2022-10-18T01:52:01;68327.09;;;7.13;100.00
22930;BME280;11630;42.660;23.292;2022-10-18T01:54:36;68328.20;;;7.22;100.00
22930;BME280;11630;42.660;23.292;2022-10-18T02:00:13;68339.02;;;7.27;100.00
22930;BME280;11630;42.660;23.292;2022-10-18T02:08:25;68334.95;;;7.22;100.00
22930;BME280;11630;42.660;23.292;2022-10-18T02:10:56;68272.91;;;6.71;100.00
22930;BME280;11630;42.660;23.292;2022-10-18T02:13:28;68289.42;;;6.80;100.00
22930;BME280;11630;42.660;23.292;2022-10-18T02:16:00;68296.74;;;6.88;100.00
22930;BME280;11630;42.660;23.292;2022-10-18T02:18:33;68287.52;;;6.82;100.00
22930;BME280;11630;42.660;23.292;2022-10-18T02:21:03;68304.59;;;6.91;100.00
22930;BME280;11630;42.660;23.292;2022-10-18T02:23:34;68292.92;;;6.82;100.00
22930;BME280;11630;42.660;23.292;2022-10-18T02:26:06;68292.95;;;6.85;100.00
22930;BME280;11630;42.660;23.292;2022-10-18T02:28:37;68299.19;;;6.91;100.00
22930;BME280;11630;42.660;23.292;2022-10-18T02:33:50;68275.33;;;6.67;100.00
22930;BME280;11630;42.660;23.292;2022-10-18T02:36:25;68233.86;;;6.30;100.00
22930;BME280;11630;42.660;23.292;2022-10-18T02:38:55;68241.72;;;6.36;100.00
22930;BME280;11630;42.660;23.292;2022-10-18T02:41:26;68223.30;;;6.19;100.00
22930;BME280;11630;42.660;23.292;2022-10-18T02:43:57;68215.48;;;6.21;100.00
22930;BME280;11630;42.660;23.292;2022-10-18T02:46:28;68255.24;;;6.46;100.00
22930;BME280;11630;42.660;23.292;2022-10-18T02:49:00;68253.11;;;6.49;100.00
22930;BME280;11630;42.660;23.292;2022-10-18T02:51:30;68279.92;;;6.70;100.00
22930;BME280;11630;42.660;23.292;2022-10-18T02:54:02;68247.39;;;6.40;100.00
22930;BME280;11630;42.660;23.292;2022-10-18T02:56:33;68241.99;;;6.38;100.00
22930;BME280;11630;42.660;23.292;2022-10-18T02:59:04;68256.38;;;6.52;100.00
22930;BME280;11630;42.660;23.292;2022-10-18T03:01:36;68246.60;;;6.41;100.00
22930;BME280;11630;42.660;23.292;2022-10-18T03:04:05;68272.08;;;6.67;100.00
22930;BME280;11630;42.660;23.292;2022-10-18T03:06:36;68268.55;;;6.65;100.00
22930;BME280;11630;42.660;23.292;2022-10-18T03:09:07;68275.05;;;6.68;100.00
22930;BME280;11630;42.660;23.292;2022-10-18T03:11:38;68286.16;;;6.77;100.00
22930;BME280;11630;42.660;23.292;2022-10-18T03:14:07;68258.25;;;6.53;100.00
22930;BME280;11630;42.660;23.292;2022-10-18T03:16:38;68225.48;;;6.24;100.00
22930;BME280;11630;42.660;23.292;2022-10-18T03:19:09;68243.08;;;6.39;100.00
22930;BME280;11630;42.660;23.292;2022-10-18T03:21:40;68252.28;;;6.47;100.00
22930;BME280;11630;42.660;23.292;2022-10-18T03:24:11;68250.41;;;6.49;100.00
22930;BME280;11630;42.660;23.292;2022-10-18T03:26:41;68259.34;;;6.56;100.00
22930;BME280;11630;42.660;23.292;2022-10-18T03:29:12;68263.39;;;6.56;100.00
22930;BME280;11630;42.660;23.292;2022-10-18T03:31:43;68229.80;;;6.28;100.00
22930;BME280;11630;42.660;23.292;2022-10-18T03:34:14;68211.67;;;6.12;100.00
22930;BME280;11630;42.660;23.292;2022-10-18T03:36:44;68210.02;;;6.08;100.00
22930;BME280;11630;42.660;23.292;2022-10-18T03:39:17;68177.81;;;5.80;100.00
22930;BME280;11630;42.660;23.292;2022-10-18T03:41:48;68190.81;;;5.95;100.00
22930;BME280;11630;42.660;23.292;2022-10-18T03:44:18;68189.45;;;5.92;100.00
22930;BME280;11630;42.660;23.292;2022-10-18T03:46:51;68208.66;;;6.06;100.00
22930;BME280;11630;42.660;23.292;2022-10-18T03:49:22;68221.41;;;6.19;100.00
22930;BME280;11630;42.660;23.292;2022-10-18T03:51:53;68216.80;;;6.13;100.00
22930;BME280;11630;42.660;23.292;2022-10-18T03:54:24;68234.40;;;6.28;100.00
22930;BME280;11630;42.660;23.292;2022-10-18T03:56:54;68240.38;;;6.39;100.00
22930;BME280;11630;42.660;23.292;2022-10-18T03:59:25;68239.02;;;6.34;100.00
22930;BME280;11630;42.660;23.292;2022-10-18T04:01:56;68205.17;;;6.07;100.00
22930;BME280;11630;42.660;23.292;2022-10-18T04:04:26;68205.95;;;6.04;100.00
22930;BME280;11630;42.660;23.292;2022-10-18T04:06:57;68213.53;;;6.10;100.00
22930;BME280;11630;42.660;23.292;2022-10-18T04:09:28;68221.95;;;6.19;100.00
22930;BME280;11630;42.660;23.292;2022-10-18T04:11:59;68215.19;;;6.14;100.00
22930;BME280;11630;42.660;23.292;2022-10-18T04:14:30;68225.73;;;6.23;100.00
22930;BME280;11630;42.660;23.292;2022-10-18T04:17:00;68213.28;;;6.11;100.00
22930;BME280;11630;42.660;23.292;2022-10-18T04:19:32;68220.03;;;6.16;100.00
22930;BME280;11630;42.660;23.292;2022-10-18T04:22:03;68185.92;;;5.88;100.00
22930;BME280;11630;42.660;23.292;2022-10-18T04:24:34;68162.91;;;5.68;100.00
22930;BME280;11630;42.660;23.292;2022-10-18T04:27:06;68191.08;;;5.94;100.00
22930;BME280;11630;42.660;23.292;2022-10-18T04:29:37;68201.37;;;6.01;100.00
22930;BME280;11630;42.660;23.292;2022-10-18T04:32:08;68213.55;;;6.13;100.00
22930;BME280;11630;42.660;23.292;2022-10-18T04:34:38;68225.47;;;6.21;100.00
22930;BME280;11630;42.660;23.292;2022-10-18T04:37:09;68227.92;;;6.27;100.00
22930;BME280;11630;42.660;23.292;2022-10-18T04:39:40;68225.73;;;6.20;100.00
22930;BME280;11630;42.660;23.292;2022-10-18T04:42:11;68219.50;;;6.16;100.00
22930;BME280;11630;42.660;23.292;2022-10-18T04:44:42;68181.60;;;5.84;100.00
22930;BME280;11630;42.660;23.292;2022-10-18T04:47:11;68187.02;;;5.91;100.00
22930;BME280;11630;42.660;23.292;2022-10-18T04:49:42;68178.06;;;5.77;100.00
22930;BME280;11630;42.660;23.292;2022-10-18T04:52:13;68174.78;;;5.74;100.00
22930;BME280;11630;42.660;23.292;2022-10-18T04:54:44;68201.34;;;5.98;100.00
22930;BME280;11630;42.660;23.292;2022-10-18T04:57:15;68210.56;;;6.07;100.00
22930;BME280;11630;42.660;23.292;2022-10-18T04:59:46;68207.33;;;6.08;100.00
22930;BME280;11630;42.660;23.292;2022-10-18T05:02:16;68216.27;;;6.15;100.00
22930;BME280;11630;42.660;23.292;2022-10-18T05:04:46;68223.30;;;6.19;100.00
22930;BME280;11630;42.660;23.292;2022-10-18T05:07:17;68197.84;;;5.99;100.00
22930;BME280;11630;42.660;23.292;2022-10-18T05:09:50;68190.80;;;5.92;100.00
22930;BME280;11630;42.660;23.292;2022-10-18T05:12:26;68203.27;;;6.04;100.00
22930;BME280;11630;42.660;23.292;2022-10-18T05:14:58;68219.77;;;6.17;100.00
22930;BME280;11630;42.660;23.292;2022-10-18T05:17:28;68240.38;;;6.39;100.00
22930;BME280;11630;42.660;23.292;2022-10-18T05:19:58;68247.97;;;6.46;100.00
22930;BME280;11630;42.660;23.292;2022-10-18T05:22:28;68251.20;;;6.46;100.00
22930;BME280;11630;42.660;23.292;2022-10-18T05:24:59;68250.94;;;6.47;100.00
22930;BME280;11630;42.660;23.292;2022-10-18T05:27:30;68281.00;;;6.71;100.00
22930;BME280;11630;42.660;23.292;2022-10-18T05:30:02;68297.83;;;6.89;100.00
22930;BME280;11630;42.660;23.292;2022-10-18T05:32:32;68303.52;;;6.95;100.00
22930;BME280;11630;42.660;23.292;2022-10-18T05:35:03;68303.25;;;6.96;100.00
22930;BME280;11630;42.660;23.292;2022-10-18T05:37:34;68319.52;;;7.09;100.00
22930;BME280;11630;42.660;23.292;2022-10-18T05:40:05;68331.69;;;7.19;100.00
22930;BME280;11630;42.660;23.292;2022-10-18T05:42:37;68358.02;;;7.44;100.00
22930;BME280;11630;42.660;23.292;2022-10-18T05:45:09;68372.65;;;7.55;100.00
22930;BME280;11630;42.660;23.292;2022-10-18T05:47:40;68393.55;;;7.78;100.00
22930;BME280;11630;42.660;23.292;2022-10-18T05:50:10;68394.38;;;7.77;100.00
22930;BME280;11630;42.660;23.292;2022-10-18T05:52:41;68418.25;;;8.02;100.00
22930;BME280;11630;42.660;23.292;2022-10-18T05:55:12;68425.02;;;8.04;100.00
22930;BME280;11630;42.660;23.292;2022-10-18T05:57:43;68449.19;;;8.25;100.00
22930;BME280;11630;42.660;23.292;2022-10-18T06:00:14;68469.00;;;8.42;100.00
22930;BME280;11630;42.660;23.292;2022-10-18T06:02:45;68464.68;;;8.43;100.00
22930;BME280;11630;42.660;23.292;2022-10-18T06:05:15;68498.61;;;8.73;100.00
22930;BME280;11630;42.660;23.292;2022-10-18T06:07:51;68511.64;;;8.85;100.00
22930;BME280;11630;42.660;23.292;2022-10-18T06:10:21;68547.20;;;9.11;100.00
22930;BME280;11630;42.660;23.292;2022-10-18T06:12:51;68563.23;;;9.29;100.00
22930;BME280;11630;42.660;23.292;2022-10-18T06:15:22;68547.77;;;9.17;100.00
22930;BME280;11630;42.660;23.292;2022-10-18T06:17:53;68553.45;;;9.23;100.00
22930;BME280;11630;42.660;23.292;2022-10-18T06:20:24;68566.25;;;9.36;100.00
22930;BME280;11630;42.660;23.292;2022-10-18T06:22:55;68599.38;;;9.64;100.00
22930;BME280;11630;42.660;23.292;2022-10-18T06:25:26;68782.42;;;11.27;100.00
22930;BME280;11630;42.660;23.292;2022-10-18T06:27:56;68918.59;;;12.49;100.00
22930;BME280;11630;42.660;23.292;2022-10-18T06:30:27;68801.48;;;11.49;100.00
22930;BME280;11630;42.660;23.292;2022-10-18T06:33:00;68666.00;;;10.26;100.00
22930;BME280;11630;42.660;23.292;2022-10-18T06:35:30;68601.56;;;9.68;100.00
22930;BME280;11630;42.660;23.292;2022-10-18T06:38:01;68632.53;;;9.94;100.00
22930;BME280;11630;42.660;23.292;2022-10-18T06:40:31;68652.11;;;10.07;100.00
22930;BME280;11630;42.660;23.292;2022-10-18T06:43:04;68685.56;;;10.44;100.00
22930;BME280;11630;42.660;23.292;2022-10-18T06:45:35;68718.47;;;10.70;98.90
22930;BME280;11630;42.660;23.292;2022-10-18T06:48:06;68718.77;;;10.72;98.08
22930;BME280;11630;42.660;23.292;2022-10-18T06:50:37;68695.63;;;10.52;97.86
22930;BME280;11630;42.660;23.292;2022-10-18T06:53:08;68613.25;;;9.80;100.00
22930;BME280;11630;42.660;23.292;2022-10-18T06:55:39;68641.27;;;10.07;100.00
22930;BME280;11630;42.660;23.292;2022-10-18T06:58:09;68653.23;;;10.15;100.00
22930;BME280;11630;42.660;23.292;2022-10-18T07:00:41;68712.50;;;10.65;99.51
22930;BME280;11630;42.660;23.292;2022-10-18T07:03:14;68686.92;;;10.44;99.87
22930;BME280;11630;42.660;23.292;2022-10-18T07:05:45;68724.46;;;10.75;98.73
22930;BME280;11630;42.660;23.292;2022-10-18T07:08:17;68723.92;;;10.73;98.61
22930;BME280;11630;42.660;23.292;2022-10-18T07:10:51;68726.64;;;10.80;97.22
22930;BME280;11630;42.660;23.292;2022-10-18T07:13:22;68750.03;;;10.96;97.42
22930;BME280;11630;42.660;23.292;2022-10-18T07:16:04;68802.87;;;11.57;95.01
22930;BME280;11630;42.660;23.292;2022-10-18T07:18:35;68885.91;;;12.19;91.48
22930;BME280;11630;42.660;23.292;2022-10-18T07:21:08;68904.16;;;12.44;88.69
22930;BME280;11630;42.660;23.292;2022-10-18T07:23:42;68842.89;;;11.90;90.96
22930;BME280;11630;42.660;23.292;2022-10-18T07:26:25;68844.79;;;11.93;90.20
22930;BME280;11630;42.660;23.292;2022-10-18T07:28:48;68912.88;;;12.50;88.34
22930;BME280;11630;42.660;23.292;2022-10-18T07:31:19;68891.64;;;12.26;88.78
22930;BME280;11630;42.660;23.292;2022-10-18T07:33:50;68937.95;;;12.70;86.87
22930;BME280;11630;42.660;23.292;2022-10-18T07:36:21;68975.03;;;13.04;85.00
22930;BME280;11630;42.660;23.292;2022-10-18T07:38:52;69005.58;;;13.34;83.50
22930;BME280;11630;42.660;23.292;2022-10-18T07:41:22;69085.20;;;14.02;81.09
22930;BME280;11630;42.660;23.292;2022-10-18T07:43:53;69114.97;;;14.30;78.46
22930;BME280;11630;42.660;23.292;2022-10-18T07:46:23;69051.92;;;13.77;79.19
22930;BME280;11630;42.660;23.292;2022-10-18T07:48:53;69054.94;;;13.78;79.02
22930;BME280;11630;42.660;23.292;2022-10-18T07:51:23;69078.39;;;13.94;78.95
22930;BME280;11630;42.660;23.292;2022-10-18T07:53:54;69156.19;;;14.69;76.37
22930;BME280;11630;42.660;23.292;2022-10-18T07:56:25;69133.26;;;14.51;75.21
22930;BME280;11630;42.660;23.292;2022-10-18T07:58:56;69184.02;;;14.97;75.55
22930;BME280;11630;42.660;23.292;2022-10-18T08:01:27;69248.77;;;15.54;72.50
22930;BME280;11630;42.660;23.292;2022-10-18T08:03:57;69273.65;;;15.73;71.13
22930;BME280;11630;42.660;23.292;2022-10-18T08:06:28;69225.56;;;15.32;71.73
22930;BME280;11630;42.660;23.292;2022-10-18T08:08:59;69196.03;;;15.05;72.39
22930;BME280;11630;42.660;23.292;2022-10-18T08:11:30;69251.77;;;15.63;71.53
22930;BME280;11630;42.660;23.292;2022-10-18T08:14:00;69260.52;;;15.66;71.34
22930;BME280;11630;42.660;23.292;2022-10-18T08:16:30;69300.69;;;15.99;68.99
22930;BME280;11630;42.660;23.292;2022-10-18T08:19:01;69397.51;;;16.85;66.37
22930;BME280;11630;42.660;23.292;2022-10-18T08:21:32;69436.05;;;17.23;64.83
22930;BME280;11630;42.660;23.292;2022-10-18T08:24:03;69475.21;;;17.55;63.27
22930;BME280;11630;42.660;23.292;2022-10-18T08:26:32;69507.55;;;17.74;61.60
22930;BME280;11630;42.660;23.292;2022-10-18T08:29:06;69453.84;;;17.43;61.30
22930;BME280;11630;42.660;23.292;2022-10-18T08:31:37;69580.11;;;18.42;59.52
22930;BME280;11630;42.660;23.292;2022-10-18T08:34:06;69606.38;;;18.75;57.61
22930;BME280;11630;42.660;23.292;2022-10-18T08:36:37;69534.06;;;18.10;59.06
22930;BME280;11630;42.660;23.292;2022-10-18T08:39:07;69585.81;;;18.60;57.49
22930;BME280;11630;42.660;23.292;2022-10-18T08:41:59;69620.09;;;18.80;55.81
22930;BME280;11630;42.660;23.292;2022-10-18T08:44:31;69554.63;;;18.20;56.52
22930;BME280;11630;42.660;23.292;2022-10-18T08:47:09;69615.41;;;18.82;55.81
22930;BME280;11630;42.660;23.292;2022-10-18T08:49:50;69580.89;;;18.53;55.40
22930;BME280;11630;42.660;23.292;2022-10-18T08:55:21;69632.66;;;18.99;55.20
22930;BME280;11630;42.660;23.292;2022-10-18T08:57:52;69454.95;;;17.39;58.96
22930;BME280;11630;42.660;23.292;2022-10-18T09:00:24;69424.57;;;17.10;60.04
22930;BME280;11630;42.660;23.292;2022-10-18T09:06:16;69486.95;;;17.72;58.34
22930;BME280;11630;42.660;23.292;2022-10-18T09:08:49;69453.87;;;17.36;60.15
22930;BME280;11630;42.660;23.292;2022-10-18T09:11:44;69609.09;;;18.80;57.05
22930;BME280;11630;42.660;23.292;2022-10-18T09:20:07;69693.25;;;19.53;52.15
22930;BME280;11630;42.660;23.292;2022-10-18T09:25:24;69848.30;;;20.85;49.34
22930;BME280;11630;42.660;23.292;2022-10-18T09:28:09;69819.41;;;20.67;48.94
22930;BME280;11630;42.660;23.292;2022-10-18T09:30:50;69814.20;;;20.61;48.44
22930;BME280;11630;42.660;23.292;2022-10-18T09:36:16;69898.02;;;21.26;47.34
22930;BME280;11630;42.660;23.292;2022-10-18T09:38:50;69854.34;;;20.90;47.67
22930;BME280;11630;42.660;23.292;2022-10-18T09:41:29;69819.70;;;20.66;47.63
22930;BME280;11630;42.660;23.292;2022-10-18T09:44:05;69735.77;;;19.85;49.60
22930;BME280;11630;42.660;23.292;2022-10-18T09:46:38;69683.60;;;19.53;50.18
22930;BME280;11630;42.660;23.292;2022-10-18T09:49:19;69666.64;;;19.35;51.79
22930;BME280;11630;42.660;23.292;2022-10-18T09:51:50;69732.52;;;19.77;49.95
22930;BME280;11630;42.660;23.292;2022-10-18T09:57:13;69745.93;;;19.96;49.78
22930;BME280;11630;42.660;23.292;2022-10-18T09:59:46;69765.92;;;20.20;49.01
22930;BME280;11630;42.660;23.292;2022-10-18T10:02:20;69756.41;;;19.93;48.67
22930;BME280;11630;42.660;23.292;2022-10-18T10:04:53;69802.98;;;20.47;48.06
22930;BME280;11630;42.660;23.292;2022-10-18T10:07:27;69929.02;;;21.60;44.83
22930;BME280;11630;42.660;23.292;2022-10-18T10:10:06;69885.30;;;21.27;44.78
22930;BME280;11630;42.660;23.292;2022-10-18T10:12:39;69876.20;;;21.20;45.74
22930;BME280;11630;42.660;23.292;2022-10-18T10:15:20;69954.25;;;21.85;44.85
22930;BME280;11630;42.660;23.292;2022-10-18T10:20:34;69914.39;;;21.51;43.72
22930;BME280;11630;42.660;23.292;2022-10-18T10:23:28;70064.81;;;22.73;41.86
22930;BME280;11630;42.660;23.292;2022-10-18T10:26:19;70031.22;;;22.50;41.54
22930;BME280;11630;42.660;23.292;2022-10-18T10:28:40;69887.27;;;21.20;43.95
22930;BME280;11630;42.660;23.292;2022-10-18T10:31:39;70000.52;;;22.12;41.97
22930;BME280;11630;42.660;23.292;2022-10-18T10:34:01;70086.16;;;23.05;40.65
22930;BME280;11630;42.660;23.292;2022-10-18T10:36:28;70046.17;;;22.51;41.14
22930;BME280;11630;42.660;23.292;2022-10-18T10:39:13;70058.55;;;22.90;40.59
22930;BME280;11630;42.660;23.292;2022-10-18T10:41:54;70124.94;;;23.38;39.45
22930;BME280;11630;42.660;23.292;2022-10-18T10:44:28;70008.48;;;22.18;41.44
22930;BME280;11630;42.660;23.292;2022-10-18T10:46:57;70061.94;;;22.85;40.54
22930;BME280;11630;42.660;23.292;2022-10-18T10:49:41;69981.14;;;22.12;40.93
22930;BME280;11630;42.660;23.292;2022-10-18T10:52:02;70168.31;;;23.88;37.97
22930;BME280;11630;42.660;23.292;2022-10-18T10:54:33;70237.44;;;24.44;36.59
22930;BME280;11630;42.660;23.292;2022-10-18T10:57:17;70258.73;;;24.52;36.47
22930;BME280;11630;42.660;23.292;2022-10-18T10:59:46;70072.06;;;22.98;38.59
22930;BME280;11630;42.660;23.292;2022-10-18T11:05:18;70119.70;;;23.35;38.01
22930;BME280;11630;42.660;23.292;2022-10-18T11:07:46;70148.88;;;23.59;37.38
22930;BME280;11630;42.660;23.292;2022-10-18T11:10:21;70106.06;;;23.10;38.11
22930;BME280;11630;42.660;23.292;2022-10-18T11:15:41;70239.79;;;24.28;35.23
22930;BME280;11630;42.660;23.292;2022-10-18T11:18:35;70309.73;;;24.91;33.89
22930;BME280;11630;42.660;23.292;2022-10-18T11:21:07;70201.59;;;23.90;35.07
22930;BME280;11630;42.660;23.292;2022-10-18T11:23:40;70184.11;;;23.88;35.63
22930;BME280;11630;42.660;23.292;2022-10-18T11:31:45;70421.13;;;25.84;33.54
22930;BME280;11630;42.660;23.292;2022-10-18T11:34:43;70401.00;;;25.91;32.52
22930;BME280;11630;42.660;23.292;2022-10-18T11:51:14;70298.14;;;24.83;32.81
22930;BME280;11630;42.660;23.292;2022-10-18T12:02:14;70275.77;;;24.70;32.84
22930;BME280;11630;42.660;23.292;2022-10-18T12:04:42;70210.66;;;24.26;32.11
22930;BME280;11630;42.660;23.292;2022-10-18T12:07:20;70344.55;;;25.39;31.61
22930;BME280;11630;42.660;23.292;2022-10-18T12:09:46;70386.66;;;25.55;31.14
22930;BME280;11630;42.660;23.292;2022-10-18T12:12:25;70368.48;;;25.38;31.30
22930;BME280;11630;42.660;23.292;2022-10-18T12:15:02;70407.00;;;25.78;29.89
22930;BME280;11630;42.660;23.292;2022-10-18T12:17:41;70478.16;;;26.40;29.30
22930;BME280;11630;42.660;23.292;2022-10-18T12:20:20;70353.54;;;25.30;29.64
22930;BME280;11630;42.660;23.292;2022-10-18T12:23:04;70336.47;;;25.14;29.49
22930;BME280;11630;42.660;23.292;2022-10-18T12:25:16;70428.73;;;26.01;29.04
22930;BME280;11630;42.660;23.292;2022-10-18T12:27:50;70411.61;;;25.88;28.26
22930;BME280;11630;42.660;23.292;2022-10-18T12:30:35;70397.36;;;25.68;28.79
22930;BME280;11630;42.660;23.292;2022-10-18T12:32:55;70433.98;;;26.05;27.79
22930;BME280;11630;42.660;23.292;2022-10-18T12:35:26;70402.37;;;25.67;28.51
22930;BME280;11630;42.660;23.292;2022-10-18T12:38:08;70496.68;;;26.74;26.77
22930;BME280;11630;42.660;23.292;2022-10-18T12:40:43;70421.27;;;26.20;27.29
22930;BME280;11630;42.660;23.292;2022-10-18T12:43:24;70462.41;;;26.27;27.37
22930;BME280;11630;42.660;23.292;2022-10-18T12:45:58;70539.31;;;27.00;26.94
22930;BME280;11630;42.660;23.292;2022-10-18T12:48:38;70455.84;;;26.16;23.82
22930;BME280;11630;42.660;23.292;2022-10-18T12:51:23;70500.41;;;26.66;25.60
22930;BME280;11630;42.660;23.292;2022-10-18T12:56:42;70424.78;;;26.05;25.82
22930;BME280;11630;42.660;23.292;2022-10-18T13:04:32;70274.98;;;24.65;25.53
22930;BME280;11630;42.660;23.292;2022-10-18T13:09:47;70226.41;;;24.34;28.35
22930;BME280;11630;42.660;23.292;2022-10-18T13:20:24;70035.78;;;22.65;24.02
22930;BME280;11630;42.660;23.292;2022-10-18T13:34:37;69955.03;;;21.90;27.40
22930;BME280;11630;42.660;23.292;2022-10-18T13:39:43;69935.02;;;21.70;25.54
22930;BME280;11630;42.660;23.292;2022-10-18T13:44:46;69885.53;;;21.31;24.08
22930;BME280;11630;42.660;23.292;2022-10-18T13:47:34;69894.34;;;21.36;24.34
22930;BME280;11630;42.660;23.292;2022-10-18T13:50:28;69878.97;;;21.20;24.32
22930;BME280;11630;42.660;23.292;2022-10-18T13:53:07;69860.00;;;21.09;24.79
22930;BME280;11630;42.660;23.292;2022-10-18T13:55:53;69861.94;;;21.07;24.00
22930;BME280;11630;42.660;23.292;2022-10-18T14:07:15;69813.08;;;20.65;25.37
22930;BME280;11630;42.660;23.292;2022-10-18T14:09:51;69819.41;;;20.65;28.95
22930;BME280;11630;42.660;23.292;2022-10-18T14:12:29;69797.67;;;20.56;29.80
22930;BME280;11630;42.660;23.292;2022-10-18T14:15:19;69788.59;;;20.52;30.05
22930;BME280;11630;42.660;23.292;2022-10-18T14:17:53;69790.58;;;20.45;31.06
22930;BME280;11630;42.660;23.292;2022-10-18T14:23:13;69769.70;;;20.31;32.13
22930;BME280;11630;42.660;23.292;2022-10-18T14:25:43;69781.86;;;20.29;32.90
22930;BME280;11630;42.660;23.292;2022-10-18T14:28:22;69767.84;;;20.20;33.20
22930;BME280;11630;42.660;23.292;2022-10-18T14:30:57;69733.00;;;19.90;33.36
22930;BME280;11630;42.660;23.292;2022-10-18T14:33:38;69715.48;;;19.67;33.90
22930;BME280;11630;42.660;23.292;2022-10-18T14:36:24;69699.27;;;19.61;33.98
22930;BME280;11630;42.660;23.292;2022-10-18T14:38:58;69691.57;;;19.56;33.72
22930;BME280;11630;42.660;23.292;2022-10-18T14:41:36;69684.20;;;19.46;32.93
22930;BME280;11630;42.660;23.292;2022-10-18T14:44:18;69670.17;;;19.39;33.00
22930;BME280;11630;42.660;23.292;2022-10-18T14:47:29;69662.24;;;19.31;33.35
22930;BME280;11630;42.660;23.292;2022-10-18T14:49:21;69654.33;;;19.20;33.17
22930;BME280;11630;42.660;23.292;2022-10-18T14:51:52;69638.67;;;19.07;33.18
22930;BME280;11630;42.660;23.292;2022-10-18T14:54:34;69629.94;;;18.94;33.52
22930;BME280;11630;42.660;23.292;2022-10-18T14:57:04;69612.91;;;18.86;34.43
22930;BME280;11630;42.660;23.292;2022-10-18T14:59:46;69597.57;;;18.72;34.63
22930;BME280;11630;42.660;23.292;2022-10-18T15:02:26;69581.96;;;18.59;35.17
22930;BME280;11630;42.660;23.292;2022-10-18T15:04:59;69564.68;;;18.48;35.83
22930;BME280;11630;42.660;23.292;2022-10-18T15:07:33;69549.38;;;18.29;37.25
22930;BME280;11630;42.660;23.292;2022-10-18T15:10:09;69538.67;;;18.18;36.81
22930;BME280;11630;42.660;23.292;2022-10-18T15:12:39;69522.55;;;18.02;36.19
22930;BME280;11630;42.660;23.292;2022-10-18T15:15:19;69517.63;;;17.95;37.48
22930;BME280;11630;42.660;23.292;2022-10-18T15:17:49;69502.81;;;17.86;37.58
22930;BME280;11630;42.660;23.292;2022-10-18T15:20:25;69493.49;;;17.83;37.72
22930;BME280;11630;42.660;23.292;2022-10-18T15:25:44;69468.89;;;17.58;37.35
22930;BME280;11630;42.660;23.292;2022-10-18T15:28:35;69452.47;;;17.43;39.82
22930;BME280;11630;42.660;23.292;2022-10-18T15:31:05;69437.13;;;17.29;40.67